sensor_id;sensor_type;location;lat;lon;timestamp;P1;durP1;ratioP1;P2;durP2;ratioP2
45650;SDS011;31365;48.858;8.530;2023-03-16T00:05:48;1.73;;;1.63;;
45650;SDS011;31365;48.858;8.530;2023-03-16T00:09:32;2.40;;;1.90;;
45650;SDS011;31365;48.858;8.530;2023-03-16T00:18:10;4.47;;;2.40;;
45650;SDS011;31365;48.858;8.530;2023-03-16T00:22:20;1.87;;;1.67;;
45650;SDS011;31365;48.858;8.530;2023-03-16T00:26:18;1.93;;;1.50;;
45650;SDS011;31365;48.858;8.530;2023-03-16T00:29:16;2.97;;;2.67;;
45650;SDS011;31365;48.858;8.530;2023-03-16T00:32:56;2.40;;;2.10;;
45650;SDS011;31365;48.858;8.530;2023-03-16T00:36:49;2.30;;;1.87;;
45650;SDS011;31365;48.858;8.530;2023-03-16T00:40:26;2.07;;;1.87;;
45650;SDS011;31365;48.858;8.530;2023-03-16T01:06:37;1.63;;;1.50;;
45650;SDS011;31365;48.858;8.530;2023-03-16T01:10:44;2.00;;;1.80;;
45650;SDS011;31365;48.858;8.530;2023-03-16T01:18:24;2.03;;;1.40;;
45650;SDS011;31365;48.858;8.530;2023-03-16T01:35:57;2.27;;;1.70;;
45650;SDS011;31365;48.858;8.530;2023-03-16T01:39:33;1.97;;;1.87;;
45650;SDS011;31365;48.858;8.530;2023-03-16T01:43:27;2.20;;;2.00;;
45650;SDS011;31365;48.858;8.530;2023-03-16T02:01:10;2.70;;;1.80;;
45650;SDS011;31365;48.858;8.530;2023-03-16T02:05:52;2.37;;;1.97;;
45650;SDS011;31365;48.858;8.530;2023-03-16T02:42:59;2.67;;;2.00;;
45650;SDS011;31365;48.858;8.530;2023-03-16T02:50:58;2.43;;;1.83;;
45650;SDS011;31365;48.858;8.530;2023-03-16T02:54:46;2.00;;;1.80;;
45650;SDS011;31365;48.858;8.530;2023-03-16T05:58:54;4.17;;;2.50;;
45650;SDS011;31365;48.858;8.530;2023-03-16T06:11:54;3.97;;;2.63;;
45650;SDS011;31365;48.858;8.530;2023-03-16T06:26:26;7.13;;;3.03;;
45650;SDS011;31365;48.858;8.530;2023-03-16T06:29:05;2.87;;;2.47;;
45650;SDS011;31365;48.858;8.530;2023-03-16T06:31:40;3.47;;;2.13;;
45650;SDS011;31365;48.858;8.530;2023-03-16T06:34:09;3.73;;;1.93;;
45650;SDS011;31365;48.858;8.530;2023-03-16T06:36:40;3.63;;;2.30;;
45650;SDS011;31365;48.858;8.530;2023-03-16T06:39:11;3.90;;;2.80;;
45650;SDS011;31365;48.858;8.530;2023-03-16T06:41:44;4.07;;;2.77;;
45650;SDS011;31365;48.858;8.530;2023-03-16T06:44:15;4.23;;;2.63;;
45650;SDS011;31365;48.858;8.530;2023-03-16T06:46:54;3.90;;;2.80;;
45650;SDS011;31365;48.858;8.530;2023-03-16T06:49:23;4.23;;;3.43;;
45650;SDS011;31365;48.858;8.530;2023-03-16T06:51:53;7.03;;;3.03;;
45650;SDS011;31365;48.858;8.530;2023-03-16T06:54:24;5.10;;;2.77;;
45650;SDS011;31365;48.858;8.530;2023-03-16T06:56:53;2.67;;;1.80;;
45650;SDS011;31365;48.858;8.530;2023-03-16T06:59:21;5.03;;;2.60;;
45650;SDS011;31365;48.858;8.530;2023-03-16T07:01:51;5.00;;;3.13;;
45650;SDS011;31365;48.858;8.530;2023-03-16T07:04:19;5.03;;;1.90;;
45650;SDS011;31365;48.858;8.530;2023-03-16T07:06:48;3.20;;;2.30;;
45650;SDS011;31365;48.858;8.530;2023-03-16T07:09:18;2.50;;;1.83;;
45650;SDS011;31365;48.858;8.530;2023-03-16T07:11:47;6.23;;;2.10;;
45650;SDS011;31365;48.858;8.530;2023-03-16T07:14:16;4.37;;;2.13;;
45650;SDS011;31365;48.858;8.530;2023-03-16T07:16:50;3.57;;;2.33;;
45650;SDS011;31365;48.858;8.530;2023-03-16T07:19:21;4.40;;;3.47;;
45650;SDS011;31365;48.858;8.530;2023-03-16T07:21:51;1.93;;;1.80;;
45650;SDS011;31365;48.858;8.530;2023-03-16T07:24:23;3.33;;;2.27;;
45650;SDS011;31365;48.858;8.530;2023-03-16T07:26:52;2.23;;;1.63;;
45650;SDS011;31365;48.858;8.530;2023-03-16T07:29:26;1.87;;;1.43;;
45650;SDS011;31365;48.858;8.530;2023-03-16T07:31:55;6.77;;;2.73;;
45650;SDS011;31365;48.858;8.530;2023-03-16T07:34:31;2.13;;;1.50;;
45650;SDS011;31365;48.858;8.530;2023-03-16T07:37:01;3.77;;;1.70;;
45650;SDS011;31365;48.858;8.530;2023-03-16T07:39:32;3.77;;;1.57;;
45650;SDS011;31365;48.858;8.530;2023-03-16T07:42:08;3.77;;;1.80;;
45650;SDS011;31365;48.858;8.530;2023-03-16T07:45:03;2.70;;;1.63;;
45650;SDS011;31365;48.858;8.530;2023-03-16T07:47:33;1.53;;;1.30;;
45650;SDS011;31365;48.858;8.530;2023-03-16T07:50:10;2.50;;;1.10;;
45650;SDS011;31365;48.858;8.530;2023-03-16T07:52:43;1.93;;;1.20;;
45650;SDS011;31365;48.858;8.530;2023-03-16T07:55:14;2.17;;;1.30;;
45650;SDS011;31365;48.858;8.530;2023-03-16T07:57:44;1.60;;;1.27;;
45650;SDS011;31365;48.858;8.530;2023-03-16T08:00:18;2.37;;;1.30;;
45650;SDS011;31365;48.858;8.530;2023-03-16T08:02:50;3.57;;;1.37;;
45650;SDS011;31365;48.858;8.530;2023-03-16T08:05:20;2.20;;;1.10;;
45650;SDS011;31365;48.858;8.530;2023-03-16T08:07:56;3.00;;;1.30;;
45650;SDS011;31365;48.858;8.530;2023-03-16T08:10:27;2.57;;;1.47;;
45650;SDS011;31365;48.858;8.530;2023-03-16T08:13:04;2.60;;;1.60;;
45650;SDS011;31365;48.858;8.530;2023-03-16T08:15:34;2.97;;;1.43;;
45650;SDS011;31365;48.858;8.530;2023-03-16T08:18:09;1.53;;;1.43;;
45650;SDS011;31365;48.858;8.530;2023-03-16T08:20:38;1.20;;;1.10;;
45650;SDS011;31365;48.858;8.530;2023-03-16T08:23:07;1.40;;;1.30;;
45650;SDS011;31365;48.858;8.530;2023-03-16T08:25:40;2.00;;;1.17;;
45650;SDS011;31365;48.858;8.530;2023-03-16T08:28:13;2.60;;;1.40;;
45650;SDS011;31365;48.858;8.530;2023-03-16T08:30:43;2.67;;;1.37;;
45650;SDS011;31365;48.858;8.530;2023-03-16T08:33:24;2.03;;;1.20;;
45650;SDS011;31365;48.858;8.530;2023-03-16T08:35:53;2.30;;;1.50;;
45650;SDS011;31365;48.858;8.530;2023-03-16T08:38:22;1.37;;;1.00;;
45650;SDS011;31365;48.858;8.530;2023-03-16T08:40:53;1.63;;;1.30;;
45650;SDS011;31365;48.858;8.530;2023-03-16T08:43:23;2.07;;;1.50;;
45650;SDS011;31365;48.858;8.530;2023-03-16T08:45:52;2.67;;;1.43;;
45650;SDS011;31365;48.858;8.530;2023-03-16T08:48:25;1.50;;;1.30;;
45650;SDS011;31365;48.858;8.530;2023-03-16T08:50:54;4.13;;;1.30;;
45650;SDS011;31365;48.858;8.530;2023-03-16T08:53:23;2.60;;;1.30;;
45650;SDS011;31365;48.858;8.530;2023-03-16T08:55:53;2.53;;;1.30;;
45650;SDS011;31365;48.858;8.530;2023-03-16T08:58:30;1.50;;;1.30;;
45650;SDS011;31365;48.858;8.530;2023-03-16T09:00:59;1.47;;;1.07;;
45650;SDS011;31365;48.858;8.530;2023-03-16T09:03:31;1.43;;;1.10;;
45650;SDS011;31365;48.858;8.530;2023-03-16T09:06:00;1.73;;;1.23;;
45650;SDS011;31365;48.858;8.530;2023-03-16T09:08:31;2.17;;;1.00;;
45650;SDS011;31365;48.858;8.530;2023-03-16T09:11:03;1.37;;;0.90;;
45650;SDS011;31365;48.858;8.530;2023-03-16T09:13:35;1.20;;;1.03;;
45650;SDS011;31365;48.858;8.530;2023-03-16T09:16:06;1.87;;;1.17;;
45650;SDS011;31365;48.858;8.530;2023-03-16T09:18:38;1.13;;;1.03;;
45650;SDS011;31365;48.858;8.530;2023-03-16T09:21:08;1.07;;;0.90;;
45650;SDS011;31365;48.858;8.530;2023-03-16T09:23:39;2.07;;;1.00;;
45650;SDS011;31365;48.858;8.530;2023-03-16T09:26:10;2.47;;;0.80;;
45650;SDS011;31365;48.858;8.530;2023-03-16T09:28:40;1.30;;;0.83;;
45650;SDS011;31365;48.858;8.530;2023-03-16T09:31:12;7.70;;;1.20;;
45650;SDS011;31365;48.858;8.530;2023-03-16T09:33:45;1.83;;;1.10;;
45650;SDS011;31365;48.858;8.530;2023-03-16T09:36:14;1.97;;;1.10;;
45650;SDS011;31365;48.858;8.530;2023-03-16T09:38:43;1.53;;;0.97;;
45650;SDS011;31365;48.858;8.530;2023-03-16T09:41:18;1.60;;;1.00;;
45650;SDS011;31365;48.858;8.530;2023-03-16T09:44:11;1.20;;;0.83;;
45650;SDS011;31365;48.858;8.530;2023-03-16T09:47:05;0.93;;;0.80;;
45650;SDS011;31365;48.858;8.530;2023-03-16T09:49:39;1.20;;;1.00;;
45650;SDS011;31365;48.858;8.530;2023-03-16T09:52:16;3.30;;;1.00;;
45650;SDS011;31365;48.858;8.530;2023-03-16T09:54:57;0.80;;;0.70;;
45650;SDS011;31365;48.858;8.530;2023-03-16T09:57:35;1.60;;;1.23;;
45650;SDS011;31365;48.858;8.530;2023-03-16T10:00:13;1.23;;;1.13;;
45650;SDS011;31365;48.858;8.530;2023-03-16T10:02:51;2.10;;;1.43;;
45650;SDS011;31365;48.858;8.530;2023-03-16T10:05:37;1.47;;;1.07;;
45650;SDS011;31365;48.858;8.530;2023-03-16T10:08:09;1.30;;;0.83;;
45650;SDS011;31365;48.858;8.530;2023-03-16T10:10:52;1.83;;;1.00;;
45650;SDS011;31365;48.858;8.530;2023-03-16T10:13:35;3.37;;;1.13;;
45650;SDS011;31365;48.858;8.530;2023-03-16T10:16:11;1.53;;;1.20;;
45650;SDS011;31365;48.858;8.530;2023-03-16T10:18:45;1.50;;;1.00;;
45650;SDS011;31365;48.858;8.530;2023-03-16T10:21:19;1.60;;;1.00;;
45650;SDS011;31365;48.858;8.530;2023-03-16T10:23:51;1.40;;;1.00;;
45650;SDS011;31365;48.858;8.530;2023-03-16T10:26:29;3.47;;;1.10;;
45650;SDS011;31365;48.858;8.530;2023-03-16T10:29:09;3.37;;;0.70;;
45650;SDS011;31365;48.858;8.530;2023-03-16T10:31:40;1.63;;;1.00;;
45650;SDS011;31365;48.858;8.530;2023-03-16T10:34:09;2.17;;;1.10;;
45650;SDS011;31365;48.858;8.530;2023-03-16T10:36:40;1.37;;;0.93;;
45650;SDS011;31365;48.858;8.530;2023-03-16T10:39:13;1.10;;;0.83;;
45650;SDS011;31365;48.858;8.530;2023-03-16T10:41:43;1.33;;;0.90;;
45650;SDS011;31365;48.858;8.530;2023-03-16T10:44:22;1.50;;;0.80;;
45650;SDS011;31365;48.858;8.530;2023-03-16T10:46:58;1.07;;;0.97;;
45650;SDS011;31365;48.858;8.530;2023-03-16T10:49:34;2.10;;;1.00;;
45650;SDS011;31365;48.858;8.530;2023-03-16T10:52:10;0.80;;;0.73;;
45650;SDS011;31365;48.858;8.530;2023-03-16T10:54:47;2.87;;;1.97;;
45650;SDS011;31365;48.858;8.530;2023-03-16T10:57:21;8.63;;;4.60;;
45650;SDS011;31365;48.858;8.530;2023-03-16T10:59:53;1.67;;;1.57;;
45650;SDS011;31365;48.858;8.530;2023-03-16T11:02:29;1.23;;;1.10;;
45650;SDS011;31365;48.858;8.530;2023-03-16T11:05:10;3.10;;;2.60;;
45650;SDS011;31365;48.858;8.530;2023-03-16T11:07:45;9.87;;;7.23;;
45650;SDS011;31365;48.858;8.530;2023-03-16T11:10:27;2.77;;;2.40;;
45650;SDS011;31365;48.858;8.530;2023-03-16T11:13:09;2.00;;;1.20;;
45650;SDS011;31365;48.858;8.530;2023-03-16T11:32:46;2.15;;;1.30;;
45650;SDS011;31365;48.858;8.530;2023-03-16T12:19:08;1.50;;;1.20;;
45650;SDS011;31365;48.858;8.530;2023-03-16T16:44:16;3.10;;;1.60;;
45650;SDS011;31365;48.858;8.530;2023-03-16T16:46:50;3.17;;;1.10;;
45650;SDS011;31365;48.858;8.530;2023-03-16T16:49:21;2.13;;;1.13;;
45650;SDS011;31365;48.858;8.530;2023-03-16T16:51:51;1.53;;;1.30;;
45650;SDS011;31365;48.858;8.530;2023-03-16T16:54:21;5.63;;;2.37;;
45650;SDS011;31365;48.858;8.530;2023-03-16T16:56:53;8.13;;;5.50;;
45650;SDS011;31365;48.858;8.530;2023-03-16T16:59:24;2.63;;;2.30;;
45650;SDS011;31365;48.858;8.530;2023-03-16T17:01:56;4.20;;;1.63;;
45650;SDS011;31365;48.858;8.530;2023-03-16T17:04:27;2.47;;;1.60;;
45650;SDS011;31365;48.858;8.530;2023-03-16T17:06:57;2.57;;;2.03;;
45650;SDS011;31365;48.858;8.530;2023-03-16T17:09:28;2.13;;;1.90;;
45650;SDS011;31365;48.858;8.530;2023-03-16T17:11:57;1.67;;;1.40;;
45650;SDS011;31365;48.858;8.530;2023-03-16T17:14:27;5.57;;;1.37;;
45650;SDS011;31365;48.858;8.530;2023-03-16T17:16:58;4.93;;;2.17;;
45650;SDS011;31365;48.858;8.530;2023-03-16T17:19:28;3.17;;;1.83;;
45650;SDS011;31365;48.858;8.530;2023-03-16T17:21:57;3.53;;;2.77;;
45650;SDS011;31365;48.858;8.530;2023-03-16T17:24:25;1.70;;;1.60;;
45650;SDS011;31365;48.858;8.530;2023-03-16T17:26:55;4.60;;;1.80;;
45650;SDS011;31365;48.858;8.530;2023-03-16T17:29:27;2.07;;;1.10;;
45650;SDS011;31365;48.858;8.530;2023-03-16T17:32:00;1.70;;;1.20;;
45650;SDS011;31365;48.858;8.530;2023-03-16T17:34:34;5.63;;;1.27;;
45650;SDS011;31365;48.858;8.530;2023-03-16T17:37:02;4.43;;;1.60;;
45650;SDS011;31365;48.858;8.530;2023-03-16T17:39:33;1.93;;;1.83;;
45650;SDS011;31365;48.858;8.530;2023-03-16T17:42:03;3.50;;;2.10;;
45650;SDS011;31365;48.858;8.530;2023-03-16T17:44:38;5.43;;;2.27;;
45650;SDS011;31365;48.858;8.530;2023-03-16T17:47:12;4.43;;;2.17;;
45650;SDS011;31365;48.858;8.530;2023-03-16T17:49:42;6.00;;;2.20;;
45650;SDS011;31365;48.858;8.530;2023-03-16T17:52:14;3.60;;;2.00;;
45650;SDS011;31365;48.858;8.530;2023-03-16T17:54:45;2.50;;;1.60;;
45650;SDS011;31365;48.858;8.530;2023-03-16T17:57:15;5.37;;;2.00;;
45650;SDS011;31365;48.858;8.530;2023-03-16T17:59:47;3.43;;;1.93;;
45650;SDS011;31365;48.858;8.530;2023-03-16T18:02:26;4.43;;;1.93;;
45650;SDS011;31365;48.858;8.530;2023-03-16T18:05:14;4.03;;;2.67;;
45650;SDS011;31365;48.858;8.530;2023-03-16T18:07:45;5.40;;;2.50;;
45650;SDS011;31365;48.858;8.530;2023-03-16T18:10:15;2.73;;;2.23;;
45650;SDS011;31365;48.858;8.530;2023-03-16T18:12:45;6.60;;;4.00;;
45650;SDS011;31365;48.858;8.530;2023-03-16T18:15:20;3.13;;;2.30;;
45650;SDS011;31365;48.858;8.530;2023-03-16T18:17:54;7.70;;;5.33;;
45650;SDS011;31365;48.858;8.530;2023-03-16T18:20:24;7.03;;;4.80;;
45650;SDS011;31365;48.858;8.530;2023-03-16T18:22:59;8.30;;;5.57;;
45650;SDS011;31365;48.858;8.530;2023-03-16T18:25:40;12.03;;;6.07;;
45650;SDS011;31365;48.858;8.530;2023-03-16T18:28:10;8.13;;;6.20;;
45650;SDS011;31365;48.858;8.530;2023-03-16T18:30:40;7.17;;;6.00;;
45650;SDS011;31365;48.858;8.530;2023-03-16T18:33:19;13.53;;;11.13;;
45650;SDS011;31365;48.858;8.530;2023-03-16T18:35:51;24.87;;;17.97;;
45650;SDS011;31365;48.858;8.530;2023-03-16T18:38:26;10.40;;;8.07;;
45650;SDS011;31365;48.858;8.530;2023-03-16T18:40:57;9.77;;;7.70;;
45650;SDS011;31365;48.858;8.530;2023-03-16T18:43:27;5.90;;;4.77;;
45650;SDS011;31365;48.858;8.530;2023-03-16T18:45:56;13.20;;;11.80;;
45650;SDS011;31365;48.858;8.530;2023-03-16T18:48:26;8.83;;;7.00;;
45650;SDS011;31365;48.858;8.530;2023-03-16T18:50:57;8.20;;;6.67;;
45650;SDS011;31365;48.858;8.530;2023-03-16T18:53:26;6.73;;;5.60;;
45650;SDS011;31365;48.858;8.530;2023-03-16T18:55:55;7.47;;;5.57;;
45650;SDS011;31365;48.858;8.530;2023-03-16T18:58:24;14.87;;;11.47;;
45650;SDS011;31365;48.858;8.530;2023-03-16T19:00:53;13.00;;;10.73;;
45650;SDS011;31365;48.858;8.530;2023-03-16T19:03:26;19.33;;;14.60;;
45650;SDS011;31365;48.858;8.530;2023-03-16T19:05:57;7.57;;;6.60;;
45650;SDS011;31365;48.858;8.530;2023-03-16T19:08:29;9.20;;;7.03;;
45650;SDS011;31365;48.858;8.530;2023-03-16T19:11:00;8.87;;;6.67;;
45650;SDS011;31365;48.858;8.530;2023-03-16T19:13:29;7.00;;;5.03;;
45650;SDS011;31365;48.858;8.530;2023-03-16T19:15:57;23.27;;;17.57;;
45650;SDS011;31365;48.858;8.530;2023-03-16T19:18:31;9.33;;;6.87;;
45650;SDS011;31365;48.858;8.530;2023-03-16T19:21:08;8.23;;;6.97;;
45650;SDS011;31365;48.858;8.530;2023-03-16T19:23:44;4.17;;;3.30;;
45650;SDS011;31365;48.858;8.530;2023-03-16T19:26:19;2.27;;;2.07;;
45650;SDS011;31365;48.858;8.530;2023-03-16T19:28:48;9.83;;;7.37;;
45650;SDS011;31365;48.858;8.530;2023-03-16T19:31:17;3.10;;;2.20;;
45650;SDS011;31365;48.858;8.530;2023-03-16T19:33:50;4.47;;;3.63;;
45650;SDS011;31365;48.858;8.530;2023-03-16T19:36:20;2.30;;;2.10;;
45650;SDS011;31365;48.858;8.530;2023-03-16T19:38:51;3.53;;;2.50;;
45650;SDS011;31365;48.858;8.530;2023-03-16T19:41:22;2.10;;;1.90;;
45650;SDS011;31365;48.858;8.530;2023-03-16T19:43:55;2.97;;;2.40;;
45650;SDS011;31365;48.858;8.530;2023-03-16T19:46:31;4.43;;;1.97;;
45650;SDS011;31365;48.858;8.530;2023-03-16T19:49:00;2.33;;;2.03;;
45650;SDS011;31365;48.858;8.530;2023-03-16T19:51:29;3.60;;;2.13;;
45650;SDS011;31365;48.858;8.530;2023-03-16T19:53:58;2.83;;;2.20;;
45650;SDS011;31365;48.858;8.530;2023-03-16T19:56:27;2.67;;;2.10;;
45650;SDS011;31365;48.858;8.530;2023-03-16T19:58:55;4.87;;;3.53;;
45650;SDS011;31365;48.858;8.530;2023-03-16T20:01:26;2.40;;;1.90;;
45650;SDS011;31365;48.858;8.530;2023-03-16T20:04:00;3.00;;;2.00;;
45650;SDS011;31365;48.858;8.530;2023-03-16T20:06:30;3.03;;;2.40;;
45650;SDS011;31365;48.858;8.530;2023-03-16T20:09:00;2.30;;;2.00;;
45650;SDS011;31365;48.858;8.530;2023-03-16T20:11:29;2.00;;;1.77;;
45650;SDS011;31365;48.858;8.530;2023-03-16T20:13:58;1.97;;;1.70;;
45650;SDS011;31365;48.858;8.530;2023-03-16T20:16:29;3.13;;;2.13;;
45650;SDS011;31365;48.858;8.530;2023-03-16T20:19:02;2.77;;;2.30;;
45650;SDS011;31365;48.858;8.530;2023-03-16T20:21:41;16.63;;;11.20;;
45650;SDS011;31365;48.858;8.530;2023-03-16T20:24:12;3.67;;;2.40;;
45650;SDS011;31365;48.858;8.530;2023-03-16T20:26:42;5.67;;;3.27;;
45650;SDS011;31365;48.858;8.530;2023-03-16T20:29:16;2.17;;;1.77;;
45650;SDS011;31365;48.858;8.530;2023-03-16T20:31:50;6.70;;;5.33;;
45650;SDS011;31365;48.858;8.530;2023-03-16T20:34:22;2.60;;;2.23;;
45650;SDS011;31365;48.858;8.530;2023-03-16T20:36:52;2.63;;;2.00;;
45650;SDS011;31365;48.858;8.530;2023-03-16T20:39:21;5.13;;;3.77;;
45650;SDS011;31365;48.858;8.530;2023-03-16T20:41:50;5.37;;;2.10;;
45650;SDS011;31365;48.858;8.530;2023-03-16T20:44:19;4.00;;;2.90;;
45650;SDS011;31365;48.858;8.530;2023-03-16T20:46:50;3.47;;;2.60;;
45650;SDS011;31365;48.858;8.530;2023-03-16T20:49:30;3.93;;;3.10;;
45650;SDS011;31365;48.858;8.530;2023-03-16T20:51:59;4.60;;;2.97;;
45650;SDS011;31365;48.858;8.530;2023-03-16T20:54:29;3.10;;;2.80;;
45650;SDS011;31365;48.858;8.530;2023-03-16T20:56:57;3.63;;;2.80;;
45650;SDS011;31365;48.858;8.530;2023-03-16T20:59:26;4.43;;;2.10;;
45650;SDS011;31365;48.858;8.530;2023-03-16T21:01:56;5.17;;;3.23;;
45650;SDS011;31365;48.858;8.530;2023-03-16T21:04:26;4.30;;;2.50;;
45650;SDS011;31365;48.858;8.530;2023-03-16T21:06:56;3.17;;;1.80;;
45650;SDS011;31365;48.858;8.530;2023-03-16T21:09:25;2.87;;;2.10;;
45650;SDS011;31365;48.858;8.530;2023-03-16T21:11:56;2.53;;;1.97;;
45650;SDS011;31365;48.858;8.530;2023-03-16T21:14:24;3.67;;;2.30;;
45650;SDS011;31365;48.858;8.530;2023-03-16T21:16:53;3.30;;;2.30;;
45650;SDS011;31365;48.858;8.530;2023-03-16T21:19:22;3.87;;;3.20;;
45650;SDS011;31365;48.858;8.530;2023-03-16T21:21:50;5.27;;;2.73;;
45650;SDS011;31365;48.858;8.530;2023-03-16T21:24:20;7.20;;;5.33;;
45650;SDS011;31365;48.858;8.530;2023-03-16T21:26:49;2.10;;;1.90;;
45650;SDS011;31365;48.858;8.530;2023-03-16T21:29:18;4.43;;;3.40;;
45650;SDS011;31365;48.858;8.530;2023-03-16T21:31:47;13.50;;;8.47;;
45650;SDS011;31365;48.858;8.530;2023-03-16T21:34:20;8.70;;;6.80;;
45650;SDS011;31365;48.858;8.530;2023-03-16T21:36:52;2.37;;;2.17;;
45650;SDS011;31365;48.858;8.530;2023-03-16T21:39:21;3.17;;;2.63;;
45650;SDS011;31365;48.858;8.530;2023-03-16T21:41:51;1.80;;;1.63;;
45650;SDS011;31365;48.858;8.530;2023-03-16T21:44:19;4.13;;;2.13;;
45650;SDS011;31365;48.858;8.530;2023-03-16T21:46:48;2.00;;;1.80;;
45650;SDS011;31365;48.858;8.530;2023-03-16T21:49:16;2.90;;;1.50;;
45650;SDS011;31365;48.858;8.530;2023-03-16T21:51:45;3.87;;;3.33;;
45650;SDS011;31365;48.858;8.530;2023-03-16T21:54:15;2.67;;;2.07;;
45650;SDS011;31365;48.858;8.530;2023-03-16T21:56:46;5.87;;;4.13;;
45650;SDS011;31365;48.858;8.530;2023-03-16T21:59:15;3.27;;;2.10;;
45650;SDS011;31365;48.858;8.530;2023-03-16T22:01:44;2.87;;;1.53;;
45650;SDS011;31365;48.858;8.530;2023-03-16T22:04:27;1.67;;;1.40;;
45650;SDS011;31365;48.858;8.530;2023-03-16T22:06:56;3.93;;;2.90;;
45650;SDS011;31365;48.858;8.530;2023-03-16T22:09:30;2.37;;;2.10;;
45650;SDS011;31365;48.858;8.530;2023-03-16T22:12:00;1.87;;;1.70;;
45650;SDS011;31365;48.858;8.530;2023-03-16T22:14:40;1.33;;;1.23;;
45650;SDS011;31365;48.858;8.530;2023-03-16T22:18:03;2.00;;;1.80;;
45650;SDS011;31365;48.858;8.530;2023-03-16T22:20:35;2.27;;;1.63;;
45650;SDS011;31365;48.858;8.530;2023-03-16T22:23:04;2.77;;;2.13;;
45650;SDS011;31365;48.858;8.530;2023-03-16T22:25:32;2.07;;;1.60;;
45650;SDS011;31365;48.858;8.530;2023-03-16T22:28:04;3.87;;;2.33;;
45650;SDS011;31365;48.858;8.530;2023-03-16T22:30:39;2.23;;;2.03;;
45650;SDS011;31365;48.858;8.530;2023-03-16T22:33:08;4.20;;;3.20;;
45650;SDS011;31365;48.858;8.530;2023-03-16T22:35:44;5.30;;;3.47;;
45650;SDS011;31365;48.858;8.530;2023-03-16T22:38:12;4.37;;;2.70;;
45650;SDS011;31365;48.858;8.530;2023-03-16T22:40:42;3.57;;;2.30;;
45650;SDS011;31365;48.858;8.530;2023-03-16T22:43:16;3.03;;;2.10;;
45650;SDS011;31365;48.858;8.530;2023-03-16T22:45:52;5.93;;;3.87;;
45650;SDS011;31365;48.858;8.530;2023-03-16T22:48:22;2.53;;;2.30;;
45650;SDS011;31365;48.858;8.530;2023-03-16T22:50:56;2.00;;;1.80;;
45650;SDS011;31365;48.858;8.530;2023-03-16T22:53:33;3.40;;;3.10;;
45650;SDS011;31365;48.858;8.530;2023-03-16T22:56:06;2.60;;;2.20;;
45650;SDS011;31365;48.858;8.530;2023-03-16T22:58:38;5.17;;;3.83;;
45650;SDS011;31365;48.858;8.530;2023-03-16T23:01:12;3.43;;;3.13;;
45650;SDS011;31365;48.858;8.530;2023-03-16T23:03:44;2.93;;;2.70;;
45650;SDS011;31365;48.858;8.530;2023-03-16T23:06:15;3.13;;;2.90;;
45650;SDS011;31365;48.858;8.530;2023-03-16T23:08:47;5.27;;;2.67;;
45650;SDS011;31365;48.858;8.530;2023-03-16T23:11:18;4.00;;;3.70;;
45650;SDS011;31365;48.858;8.530;2023-03-16T23:13:51;3.67;;;2.47;;
45650;SDS011;31365;48.858;8.530;2023-03-16T23:16:21;3.03;;;2.47;;
45650;SDS011;31365;48.858;8.530;2023-03-16T23:18:53;3.67;;;3.33;;
45650;SDS011;31365;48.858;8.530;2023-03-16T23:21:23;4.00;;;3.27;;
45650;SDS011;31365;48.858;8.530;2023-03-16T23:23:54;3.80;;;2.87;;
45650;SDS011;31365;48.858;8.530;2023-03-16T23:26:29;17.37;;;7.33;;
45650;SDS011;31365;48.858;8.530;2023-03-16T23:29:00;16.40;;;8.87;;
45650;SDS011;31365;48.858;8.530;2023-03-16T23:31:29;7.73;;;5.00;;
45650;SDS011;31365;48.858;8.530;2023-03-16T23:33:57;5.20;;;4.13;;
45650;SDS011;31365;48.858;8.530;2023-03-16T23:36:26;11.03;;;6.33;;
45650;SDS011;31365;48.858;8.530;2023-03-16T23:38:55;13.87;;;7.57;;
45650;SDS011;31365;48.858;8.530;2023-03-16T23:41:23;19.57;;;9.97;;
45650;SDS011;31365;48.858;8.530;2023-03-16T23:43:52;10.30;;;6.43;;
45650;SDS011;31365;48.858;8.530;2023-03-16T23:46:23;13.43;;;7.17;;
45650;SDS011;31365;48.858;8.530;2023-03-16T23:48:55;22.43;;;11.73;;
45650;SDS011;31365;48.858;8.530;2023-03-16T23:51:30;24.90;;;14.30;;
45650;SDS011;31365;48.858;8.530;2023-03-16T23:54:09;33.63;;;19.23;;
45650;SDS011;31365;48.858;8.530;2023-03-16T23:56:44;17.53;;;11.67;;
45650;SDS011;31365;48.858;8.530;2023-03-16T23:59:13;9.10;;;5.10;;
